createdAt,value
2018-02-10T00:00:48.624Z,0
2018-02-10T00:01:48.555Z,0
2018-02-10T00:02:48.581Z,0
2018-02-10T00:04:03.222Z,0
2018-02-10T00:04:48.336Z,0
2018-02-10T00:05:48.335Z,0
2018-02-10T00:06:48.608Z,0
2018-02-10T00:08:48.633Z,0
2018-02-10T00:09:48.650Z,0
2018-02-10T00:11:03.317Z,0
2018-02-10T00:12:03.100Z,0
2018-02-10T00:13:03.102Z,0
2018-02-10T00:14:17.767Z,0
2018-02-10T00:14:48.697Z,0
2018-02-10T00:15:48.717Z,0
2018-02-10T00:16:48.726Z,0
2018-02-10T00:18:48.488Z,0
2018-02-10T00:19:48.757Z,0
2018-02-10T00:20:48.757Z,0
2018-02-10T00:21:48.796Z,0
2018-02-10T00:23:03.465Z,0
2018-02-10T00:23:48.558Z,0
2018-02-10T00:24:48.338Z,0
2018-02-10T00:25:48.821Z,0
2018-02-10T00:27:48.614Z,0
2018-02-10T00:30:03.050Z,0
2018-02-10T00:30:48.628Z,0
2018-02-10T00:32:48.646Z,0
2018-02-10T00:33:48.961Z,0
2018-02-10T00:34:48.929Z,0
2018-02-10T00:35:48.969Z,0
2018-02-10T00:37:48.989Z,0
2018-02-10T00:38:48.982Z,0
2018-02-10T00:39:48.750Z,0
2018-02-10T00:40:48.745Z,0
2018-02-10T00:41:49.025Z,0
2018-02-10T00:42:48.777Z,0
2018-02-10T00:43:49.054Z,0
2018-02-10T00:44:48.808Z,0
2018-02-10T00:46:03.755Z,0
2018-02-10T00:46:49.059Z,0
2018-02-10T00:48:03.750Z,0
2018-02-10T00:48:48.849Z,0
2018-02-10T00:49:49.135Z,0
2018-02-10T00:50:48.905Z,0
2018-02-10T00:51:48.894Z,0
2018-02-10T00:52:48.909Z,0
2018-02-10T00:53:49.192Z,0
2018-02-10T00:54:49.274Z,0
2018-02-10T00:55:48.948Z,0
2018-02-10T00:56:49.189Z,0
2018-02-10T00:57:48.947Z,0
2018-02-10T00:58:49.251Z,0
2018-02-10T00:59:48.741Z,0
2018-02-10T01:01:03.945Z,0
2018-02-10T01:01:49.269Z,0
2018-02-10T01:02:49.265Z,0
2018-02-10T01:03:48.769Z,0
2018-02-10T01:04:49.057Z,0
2018-02-10T01:05:49.064Z,0
2018-02-10T01:06:49.317Z,0
2018-02-10T01:07:49.330Z,0
2018-02-10T01:09:49.357Z,0
2018-02-10T01:10:49.361Z,0
2018-02-10T01:11:49.392Z,0
2018-02-10T01:12:49.145Z,0
2018-02-10T01:13:49.404Z,0
2018-02-10T01:14:49.431Z,0
2018-02-10T01:15:49.433Z,0
2018-02-10T01:16:49.438Z,0
2018-02-10T01:17:49.211Z,0
2018-02-10T01:18:49.225Z,0
2018-02-10T01:19:49.222Z,0
2018-02-10T01:21:49.524Z,0
2018-02-10T01:22:49.514Z,0
2018-02-10T01:23:49.018Z,0
2018-02-10T01:24:49.563Z,0
2018-02-10T01:25:49.565Z,0
2018-02-10T01:26:49.062Z,0
2018-02-10T01:27:49.332Z,0
2018-02-10T01:28:49.606Z,0
2018-02-10T01:29:49.345Z,0
2018-02-10T01:30:49.110Z,0
2018-02-10T01:31:49.615Z,0
2018-02-10T01:33:04.324Z,0
2018-02-10T01:33:49.695Z,0
2018-02-10T01:34:49.417Z,0
2018-02-10T01:35:49.684Z,0
2018-02-10T01:37:49.437Z,0
2018-02-10T01:39:04.363Z,0
2018-02-10T01:39:49.748Z,0
2018-02-10T01:40:49.735Z,0
2018-02-10T01:41:49.739Z,0
2018-02-10T01:42:49.763Z,0
2018-02-10T01:43:49.269Z,0
2018-02-10T01:45:49.529Z,0
2018-02-10T01:46:49.815Z,0
2018-02-10T01:47:49.675Z,0
2018-02-10T01:49:04.261Z,0
2018-02-10T01:49:49.867Z,0
2018-02-10T01:50:49.870Z,0
2018-02-10T01:52:04.538Z,0
2018-02-10T01:52:49.644Z,0
2018-02-10T01:53:49.898Z,0
2018-02-10T01:54:49.764Z,0
2018-02-10T01:55:49.657Z,0
2018-02-10T01:56:49.668Z,0
2018-02-10T01:58:04.344Z,0
2018-02-10T01:59:49.439Z,0
2018-02-10T02:01:04.658Z,0
2018-02-10T02:02:04.665Z,0
2018-02-10T02:02:49.733Z,0
2018-02-10T02:03:49.764Z,0
2018-02-10T02:05:04.672Z,0
2018-02-10T02:05:50.037Z,0
2018-02-10T02:06:50.025Z,0
2018-02-10T02:07:50.065Z,0
2018-02-10T02:08:49.802Z,0
2018-02-10T02:09:50.090Z,0
2018-02-10T02:11:04.749Z,0
2018-02-10T02:12:04.774Z,0
2018-02-10T02:13:04.781Z,0
2018-02-10T02:13:50.126Z,0
2018-02-10T02:15:04.813Z,0
2018-02-10T02:15:49.628Z,0
2018-02-10T02:16:49.910Z,0
2018-02-10T02:17:49.930Z,0
2018-02-10T02:18:50.182Z,0
2018-02-10T02:19:50.184Z,0
2018-02-10T02:21:04.886Z,0
2018-02-10T02:22:04.644Z,0
2018-02-10T02:22:50.237Z,0
2018-02-10T02:24:04.925Z,0
2018-02-10T02:25:04.664Z,0
2018-02-10T02:25:50.275Z,0
2018-02-10T02:27:50.293Z,0
2018-02-10T02:28:50.076Z,0
2018-02-10T02:30:04.992Z,0
2018-02-10T02:30:50.356Z,0
2018-02-10T02:31:50.349Z,0
2018-02-10T02:33:05.039Z,0
2018-02-10T02:33:50.386Z,0
2018-02-10T02:34:50.405Z,0
2018-02-10T02:36:05.069Z,0
2018-02-10T02:37:05.076Z,0
2018-02-10T02:37:50.451Z,0
2018-02-10T02:38:50.197Z,0
2018-02-10T02:40:05.115Z,0
2018-02-10T02:40:50.516Z,0
2018-02-10T02:41:50.457Z,0
2018-02-10T02:42:50.518Z,0
2018-02-10T02:43:50.510Z,0
2018-02-10T02:44:50.505Z,0
2018-02-10T02:45:50.524Z,0
2018-02-10T02:46:50.567Z,0
2018-02-10T02:47:50.548Z,0
2018-02-10T02:48:50.541Z,0
2018-02-10T02:49:50.575Z,0
2018-02-10T02:50:50.332Z,0
2018-02-10T02:52:05.266Z,0
2018-02-10T02:52:50.349Z,0
2018-02-10T02:53:50.603Z,0
2018-02-10T02:54:50.651Z,0
2018-02-10T02:55:50.404Z,0
2018-02-10T02:56:50.664Z,0
2018-02-10T02:57:50.671Z,0
2018-02-10T02:58:50.687Z,0
2018-02-10T03:00:05.360Z,0
2018-02-10T03:00:50.693Z,0
2018-02-10T03:01:50.455Z,0
2018-02-10T03:02:50.467Z,0
2018-02-10T03:04:05.412Z,0
2018-02-10T03:05:05.403Z,0
2018-02-10T03:05:50.756Z,0
2018-02-10T03:08:05.204Z,0
2018-02-10T03:08:50.822Z,0
2018-02-10T03:10:05.481Z,0
2018-02-10T03:10:50.577Z,0
2018-02-10T03:11:50.330Z,0
2018-02-10T03:12:50.599Z,0
2018-02-10T03:13:50.867Z,0
2018-02-10T03:14:50.355Z,0
2018-02-10T03:15:50.878Z,0
2018-02-10T03:16:50.868Z,0
2018-02-10T03:17:50.396Z,0
2018-02-10T03:18:50.684Z,0
2018-02-10T03:20:05.335Z,0
2018-02-10T03:20:50.942Z,0
2018-02-10T03:21:50.672Z,0
2018-02-10T03:23:05.127Z,0
2018-02-10T03:24:05.398Z,0
2018-02-10T03:24:50.954Z,0
2018-02-10T03:25:50.747Z,0
2018-02-10T03:26:51.010Z,0
2018-02-10T03:27:51.028Z,0
2018-02-10T03:28:50.764Z,0
2018-02-10T03:29:51.034Z,0
2018-02-10T03:30:51.079Z,0
2018-02-10T03:31:50.810Z,0
2018-02-10T03:32:51.092Z,0
2018-02-10T03:34:05.779Z,0
2018-02-10T03:34:50.863Z,0
2018-02-10T03:36:05.794Z,0
2018-02-10T03:36:51.137Z,0
2018-02-10T03:37:50.878Z,0
2018-02-10T03:38:51.175Z,0
2018-02-10T03:40:05.839Z,0
2018-02-10T03:40:51.169Z,0
2018-02-10T03:41:51.170Z,0
2018-02-10T03:43:05.875Z,0
2018-02-10T03:43:51.240Z,0
2018-02-10T03:45:51.249Z,0
2018-02-10T03:46:51.247Z,0
2018-02-10T03:47:50.994Z,0
2018-02-10T03:48:51.007Z,0
2018-02-10T03:49:51.276Z,0
2018-02-10T03:50:51.057Z,0
2018-02-10T03:51:51.322Z,0
2018-02-10T03:52:51.067Z,0
2018-02-10T03:54:51.347Z,0
2018-02-10T03:56:06.029Z,0
2018-02-10T03:56:51.111Z,0
2018-02-10T03:58:50.896Z,0
2018-02-10T03:59:51.259Z,0
2018-02-10T04:01:50.668Z,0
2018-02-10T04:02:50.932Z,0
2018-02-10T04:03:51.203Z,0
2018-02-10T04:05:06.147Z,0
2018-02-10T04:05:50.964Z,0
2018-02-10T04:06:51.245Z,0
2018-02-10T04:07:50.982Z,0
2018-02-10T04:08:51.512Z,0
2018-02-10T04:09:51.276Z,0
2018-02-10T04:11:06.203Z,0
2018-02-10T04:11:51.559Z,0
2018-02-10T04:12:51.298Z,0
2018-02-10T04:13:51.567Z,0
2018-02-10T04:14:51.327Z,0
2018-02-10T04:15:51.593Z,0
2018-02-10T04:16:51.605Z,0
2018-02-10T04:17:51.597Z,0
2018-02-10T04:18:51.641Z,0
2018-02-10T04:19:51.652Z,0
2018-02-10T04:21:51.434Z,0
2018-02-10T04:22:51.682Z,0
2018-02-10T04:23:51.675Z,0
2018-02-10T04:24:51.707Z,0
2018-02-10T04:25:51.458Z,0
2018-02-10T04:26:51.716Z,0
2018-02-10T04:27:51.467Z,0
2018-02-10T04:28:51.739Z,0
2018-02-10T04:29:51.512Z,0
2018-02-10T04:30:51.787Z,0
2018-02-10T04:31:51.774Z,0
2018-02-10T04:32:51.871Z,0
2018-02-10T04:33:51.563Z,0
2018-02-10T04:34:51.817Z,0
2018-02-10T04:35:51.814Z,0
2018-02-10T04:36:51.579Z,0
2018-02-10T04:37:51.857Z,0
2018-02-10T04:39:06.541Z,0
2018-02-10T04:39:51.995Z,0
2018-02-10T04:40:51.898Z,0
2018-02-10T04:41:51.897Z,0
2018-02-10T04:43:51.921Z,0
2018-02-10T04:44:51.938Z,0
2018-02-10T04:45:51.943Z,0
2018-02-10T04:46:51.962Z,0
2018-02-10T04:47:51.741Z,0
2018-02-10T04:48:52.003Z,0
2018-02-10T04:49:51.738Z,0
2018-02-10T04:50:51.506Z,0
2018-02-10T04:52:52.047Z,0
2018-02-10T04:53:51.805Z,0
2018-02-10T04:54:52.165Z,0
2018-02-10T04:56:51.850Z,0
2018-02-10T04:57:52.102Z,0
2018-02-10T04:59:06.541Z,0
2018-02-10T04:59:51.614Z,0
2018-02-10T05:00:51.889Z,0
2018-02-10T05:01:51.632Z,0
2018-02-10T05:03:06.834Z,0
2018-02-10T05:03:52.169Z,0
2018-02-10T05:04:52.195Z,0
2018-02-10T05:05:52.203Z,0
2018-02-10T05:06:52.177Z,0
2018-02-10T05:07:52.211Z,0
2018-02-10T05:08:51.979Z,0
2018-02-10T05:09:52.252Z,0
2018-02-10T05:10:52.245Z,0
2018-02-10T05:11:52.269Z,0
2018-02-10T05:13:06.447Z,0
2018-02-10T05:13:52.036Z,0
2018-02-10T05:15:06.985Z,0
2018-02-10T05:15:52.316Z,0
2018-02-10T05:16:52.337Z,0
2018-02-10T05:17:52.335Z,0
2018-02-10T05:18:52.347Z,0
2018-02-10T05:19:52.096Z,0
2018-02-10T05:20:52.118Z,0
2018-02-10T05:21:52.363Z,0
2018-02-10T05:22:52.164Z,0
2018-02-10T05:23:52.171Z,0
2018-02-10T05:24:52.275Z,0
2018-02-10T05:25:52.435Z,0
2018-02-10T05:26:52.452Z,0
2018-02-10T05:27:52.466Z,0
2018-02-10T05:28:52.215Z,0
2018-02-10T05:29:52.486Z,0
2018-02-10T05:31:07.159Z,0
2018-02-10T05:31:52.487Z,0
2018-02-10T05:32:52.524Z,0
2018-02-10T05:34:07.190Z,0
2018-02-10T05:34:52.566Z,0
2018-02-10T05:35:52.547Z,0
2018-02-10T05:36:52.580Z,0
2018-02-10T05:37:52.563Z,0
2018-02-10T05:38:52.579Z,0
2018-02-10T05:39:52.601Z,0
2018-02-10T05:40:52.352Z,0
2018-02-10T05:41:52.385Z,0
2018-02-10T05:42:52.377Z,0
2018-02-10T05:43:52.413Z,0
2018-02-10T05:44:52.441Z,0
2018-02-10T05:46:07.354Z,0
2018-02-10T05:46:52.431Z,0
2018-02-10T05:47:52.447Z,0
2018-02-10T05:48:52.207Z,0
2018-02-10T05:49:52.228Z,0
2018-02-10T05:50:52.495Z,0
2018-02-10T05:51:52.748Z,0
2018-02-10T05:52:52.744Z,0
2018-02-10T05:53:52.523Z,0
2018-02-10T05:55:07.446Z,0
2018-02-10T05:55:52.807Z,0
2018-02-10T05:56:52.304Z,0
2018-02-10T05:57:52.565Z,0
2018-02-10T05:58:52.325Z,0
2018-02-10T06:00:07.509Z,0
2018-02-10T06:01:07.280Z,0
2018-02-10T06:01:52.864Z,0
2018-02-10T06:02:52.873Z,0
2018-02-10T06:03:52.376Z,0
2018-02-10T06:04:52.915Z,0
2018-02-10T06:05:52.907Z,0
2018-02-10T06:07:07.332Z,0
2018-02-10T06:07:52.709Z,0
2018-02-10T06:08:52.948Z,0
2018-02-10T06:09:52.963Z,0
2018-02-10T06:10:52.511Z,4
2018-02-10T06:11:52.474Z,4
2018-02-10T06:12:52.764Z,4
2018-02-10T06:13:53.025Z,0
2018-02-10T06:14:53.032Z,4
2018-02-10T06:15:52.795Z,4
2018-02-10T06:16:53.064Z,4
2018-02-10T06:18:53.075Z,4
2018-02-10T06:19:52.830Z,4
2018-02-10T06:20:53.088Z,4
2018-02-10T06:21:52.832Z,8
2018-02-10T06:22:52.884Z,8
2018-02-10T06:23:53.109Z,8
2018-02-10T06:24:53.153Z,8
2018-02-10T06:25:53.185Z,12
2018-02-10T06:26:53.182Z,12
2018-02-10T06:27:53.218Z,12
2018-02-10T06:28:52.943Z,16
2018-02-10T06:29:53.184Z,16
2018-02-10T06:30:53.233Z,20
2018-02-10T06:31:53.231Z,20
2018-02-10T06:32:53.232Z,20
2018-02-10T06:34:22.592Z,24
2018-02-10T06:34:53.261Z,24
2018-02-10T06:35:52.757Z,28
2018-02-10T06:36:53.029Z,28
2018-02-10T06:37:53.043Z,32
2018-02-10T06:38:53.317Z,36
2018-02-10T06:39:53.338Z,36
2018-02-10T06:40:53.336Z,40
2018-02-10T06:42:07.764Z,44
2018-02-10T06:42:53.362Z,48
2018-02-10T06:43:53.377Z,48
2018-02-10T06:44:53.410Z,52
2018-02-10T06:45:53.513Z,52
2018-02-10T06:46:53.427Z,56
2018-02-10T06:47:53.445Z,60
2018-02-10T06:48:53.192Z,60
2018-02-10T06:50:08.123Z,64
2018-02-10T06:50:53.208Z,68
2018-02-10T06:51:53.483Z,68
2018-02-10T06:52:53.501Z,72
2018-02-10T06:53:53.491Z,76
2018-02-10T06:54:53.267Z,76
2018-02-10T06:56:07.939Z,76
2018-02-10T06:57:53.274Z,84
2018-02-10T06:58:53.553Z,88
2018-02-10T06:59:53.569Z,92
2018-02-10T07:00:53.585Z,100
2018-02-10T07:01:53.354Z,108
2018-02-10T07:02:53.355Z,112
2018-02-10T07:03:53.373Z,116
2018-02-10T07:05:08.285Z,116
2018-02-10T07:06:08.328Z,124
2018-02-10T07:06:53.387Z,124
2018-02-10T07:08:53.417Z,140
2018-02-10T07:09:53.678Z,156
2018-02-10T07:11:08.123Z,168
2018-02-10T07:11:53.722Z,184
2018-02-10T07:12:53.825Z,188
2018-02-10T07:13:53.745Z,204
2018-02-10T07:15:53.751Z,236
2018-02-10T07:16:53.798Z,256
2018-02-10T07:18:08.193Z,276
2018-02-10T07:18:53.560Z,284
2018-02-10T07:19:53.819Z,296
2018-02-10T07:21:08.499Z,312
2018-02-10T07:21:53.823Z,324
2018-02-10T07:22:53.849Z,340
2018-02-10T07:23:53.854Z,352
2018-02-10T07:24:53.872Z,360
2018-02-10T07:25:53.941Z,368
2018-02-10T07:26:53.893Z,372
2018-02-10T07:27:53.909Z,380
2018-02-10T07:29:53.949Z,396
2018-02-10T07:30:53.446Z,400
2018-02-10T07:31:53.970Z,404
2018-02-10T07:32:53.721Z,400
2018-02-10T07:33:54.002Z,400
2018-02-10T07:34:53.992Z,404
2018-02-10T07:35:53.866Z,408
2018-02-10T07:36:53.523Z,404
2018-02-10T07:37:53.765Z,408
2018-02-10T07:38:54.042Z,420
2018-02-10T07:39:54.079Z,436
2018-02-10T07:40:54.066Z,448
2018-02-10T07:41:53.843Z,464
2018-02-10T07:42:54.091Z,472
2018-02-10T07:43:54.114Z,476
2018-02-10T07:44:54.140Z,480
2018-02-10T07:45:53.866Z,484
2018-02-10T07:46:54.150Z,480
2018-02-10T07:47:54.168Z,476
2018-02-10T07:48:54.166Z,480
2018-02-10T07:49:54.199Z,484
2018-02-10T07:50:53.930Z,496
2018-02-10T07:51:53.967Z,500
2018-02-10T07:53:08.626Z,516
2018-02-10T07:53:54.002Z,532
2018-02-10T07:55:54.252Z,588
2018-02-10T07:57:53.790Z,636
2018-02-10T07:58:54.042Z,656
2018-02-10T07:59:54.314Z,680
2018-02-10T08:01:08.731Z,728
2018-02-10T08:01:54.054Z,768
2018-02-10T08:02:54.340Z,820
2018-02-10T08:03:54.350Z,868
2018-02-10T08:04:54.122Z,928
2018-02-10T08:05:54.140Z,992
2018-02-10T08:06:54.149Z,1008
2018-02-10T08:07:54.408Z,1008
2018-02-10T08:09:23.753Z,1016
2018-02-10T08:09:54.235Z,1016
2018-02-10T08:10:54.435Z,1028
2018-02-10T08:11:54.183Z,1036
2018-02-10T08:12:54.215Z,1044
2018-02-10T08:13:54.480Z,1032
2018-02-10T08:14:54.239Z,1020
2018-02-10T08:16:54.252Z,1004
2018-02-10T08:17:54.524Z,1004
2018-02-10T08:18:54.300Z,1000
2018-02-10T08:19:54.547Z,996
2018-02-10T08:20:54.564Z,1008
2018-02-10T08:22:09.243Z,1000
2018-02-10T08:22:54.337Z,992
2018-02-10T08:23:54.352Z,988
2018-02-10T08:25:09.020Z,988
2018-02-10T08:25:54.624Z,992
2018-02-10T08:26:54.396Z,1000
2018-02-10T08:27:54.408Z,1004
2018-02-10T08:29:54.664Z,1016
2018-02-10T08:30:54.704Z,1020
2018-02-10T08:31:54.700Z,1016
2018-02-10T08:32:54.728Z,1004
2018-02-10T08:33:54.477Z,984
2018-02-10T08:34:54.741Z,972
2018-02-10T08:35:54.755Z,980
2018-02-10T08:36:54.508Z,996
2018-02-10T08:37:54.764Z,1008
2018-02-10T08:39:54.818Z,1036
2018-02-10T08:41:09.505Z,1036
2018-02-10T08:41:54.563Z,1040
2018-02-10T08:42:54.814Z,1052
2018-02-10T08:43:54.841Z,1068
2018-02-10T08:44:54.852Z,1092
2018-02-10T08:45:54.371Z,1104
2018-02-10T08:46:54.646Z,1112
2018-02-10T08:47:54.902Z,1120
2018-02-10T08:48:54.640Z,1128
2018-02-10T08:49:54.922Z,1136
2018-02-10T08:50:54.922Z,1132
2018-02-10T08:51:54.976Z,1132
2018-02-10T08:52:54.963Z,1128
2018-02-10T08:54:09.404Z,1120
2018-02-10T08:56:09.406Z,1124
2018-02-10T08:56:54.758Z,1132
2018-02-10T08:57:55.072Z,1144
2018-02-10T08:58:54.787Z,1156
2018-02-10T08:59:54.544Z,1164
2018-02-10T09:00:54.814Z,1184
2018-02-10T09:02:09.752Z,1204
2018-02-10T09:02:55.106Z,1208
2018-02-10T09:03:55.084Z,1224
2018-02-10T09:04:54.614Z,1256
2018-02-10T09:05:54.861Z,1304
2018-02-10T09:07:09.926Z,1360
2018-02-10T09:07:54.898Z,1372
2018-02-10T09:09:09.842Z,1380
2018-02-10T09:10:55.177Z,1440
2018-02-10T09:11:55.199Z,1456
2018-02-10T09:12:54.969Z,1452
2018-02-10T09:13:54.736Z,1444
2018-02-10T09:14:55.260Z,1452
2018-02-10T09:15:55.004Z,1524
2018-02-10T09:16:55.286Z,1624
2018-02-10T09:17:55.271Z,1748
2018-02-10T09:18:54.776Z,1844
2018-02-10T09:20:54.806Z,2016
2018-02-10T09:21:55.324Z,2136
2018-02-10T09:22:55.339Z,2316
2018-02-10T09:23:55.368Z,2424
2018-02-10T09:24:55.398Z,2508
2018-02-10T09:25:55.437Z,2564
2018-02-10T09:27:09.564Z,2568
2018-02-10T09:28:09.916Z,2508
2018-02-10T09:28:55.434Z,2404
2018-02-10T09:29:55.413Z,2260
2018-02-10T09:30:55.197Z,2108
2018-02-10T09:31:55.195Z,2012
2018-02-10T09:33:10.137Z,1940
2018-02-10T09:33:55.503Z,1944
2018-02-10T09:34:55.507Z,1980
2018-02-10T09:36:10.197Z,2012
2018-02-10T09:38:55.296Z,2020
2018-02-10T09:39:55.642Z,2032
2018-02-10T09:41:55.069Z,2160
2018-02-10T09:42:55.345Z,2204
2018-02-10T09:44:10.279Z,2348
2018-02-10T09:45:10.032Z,2480
2018-02-10T09:45:55.133Z,2572
2018-02-10T09:46:55.401Z,2648
2018-02-10T09:47:55.678Z,2584
2018-02-10T09:48:55.656Z,2464
2018-02-10T09:49:55.443Z,2412
2018-02-10T09:50:55.687Z,2404
2018-02-10T09:51:55.723Z,2460
2018-02-10T09:52:55.533Z,2516
2018-02-10T09:53:55.794Z,2548
2018-02-10T09:54:55.558Z,2604
2018-02-10T09:56:10.183Z,2744
2018-02-10T09:56:55.270Z,2848
2018-02-10T09:57:55.800Z,2972
2018-02-10T09:59:10.490Z,3084
2018-02-10T10:00:10.540Z,3164
2018-02-10T10:00:55.828Z,3204
2018-02-10T10:01:55.602Z,3280
2018-02-10T10:02:55.625Z,3396
2018-02-10T10:03:55.899Z,3492
2018-02-10T10:04:55.629Z,3568
2018-02-10T10:05:55.901Z,3580
2018-02-10T10:06:55.661Z,3572
2018-02-10T10:07:55.666Z,3680
2018-02-10T10:08:55.183Z,3748
2018-02-10T10:10:10.385Z,3876
2018-02-10T10:10:55.983Z,3996
2018-02-10T10:11:55.733Z,4188
2018-02-10T10:12:55.734Z,4384
2018-02-10T10:13:55.763Z,4392
2018-02-10T10:14:55.792Z,4308
2018-02-10T10:16:10.719Z,4044
2018-02-10T10:16:55.808Z,3880
2018-02-10T10:17:55.823Z,3908
2018-02-10T10:18:55.825Z,4036
2018-02-10T10:19:56.070Z,4048
2018-02-10T10:20:55.868Z,4004
2018-02-10T10:21:55.867Z,4028
2018-02-10T10:22:56.164Z,3992
2018-02-10T10:24:56.142Z,3800
2018-02-10T10:25:55.648Z,3744
2018-02-10T10:26:56.184Z,3756
2018-02-10T10:27:56.211Z,3880
2018-02-10T10:28:55.715Z,4088
2018-02-10T10:29:56.325Z,4348
2018-02-10T10:31:10.912Z,4496
2018-02-10T10:31:55.988Z,4512
2018-02-10T10:32:56.385Z,4556
2018-02-10T10:34:10.944Z,4660
2018-02-10T10:34:56.310Z,4712
2018-02-10T10:35:56.165Z,4740
2018-02-10T10:37:10.984Z,4724
2018-02-10T10:37:56.335Z,4724
2018-02-10T10:38:56.105Z,4552
2018-02-10T10:39:56.391Z,4144
2018-02-10T10:41:56.400Z,3848
2018-02-10T10:42:56.402Z,3824
2018-02-10T10:43:55.931Z,3832
2018-02-10T10:44:56.423Z,3896
2018-02-10T10:45:56.232Z,3880
2018-02-10T10:46:56.485Z,3776
2018-02-10T10:48:11.146Z,3740
2018-02-10T10:49:11.164Z,3796
2018-02-10T10:50:10.941Z,3872
2018-02-10T10:50:56.287Z,3916
2018-02-10T10:51:56.558Z,3884
2018-02-10T10:52:56.309Z,3784
2018-02-10T10:53:56.054Z,3712
2018-02-10T10:54:56.080Z,3620
2018-02-10T10:55:56.602Z,3512
2018-02-10T10:56:56.629Z,3428
2018-02-10T10:57:56.382Z,3344
2018-02-10T10:58:56.394Z,3372
2018-02-10T10:59:56.152Z,3448
2018-02-10T11:00:56.425Z,3552
2018-02-10T11:01:56.421Z,3608
2018-02-10T11:03:11.359Z,3580
2018-02-10T11:03:56.730Z,3508
2018-02-10T11:04:56.746Z,3420
2018-02-10T11:05:56.493Z,3384
2018-02-10T11:06:56.762Z,3364
2018-02-10T11:07:56.514Z,3360
2018-02-10T11:09:11.489Z,3312
2018-02-10T11:09:56.540Z,3276
2018-02-10T11:10:56.543Z,3216
2018-02-10T11:12:11.507Z,3156
2018-02-10T11:12:56.605Z,3108
2018-02-10T11:13:56.889Z,3084
2018-02-10T11:14:56.881Z,3072
2018-02-10T11:15:56.880Z,3088
2018-02-10T11:16:56.907Z,3128
2018-02-10T11:17:56.696Z,3200
2018-02-10T11:19:11.357Z,3348
2018-02-10T11:19:56.965Z,3456
2018-02-10T11:20:56.970Z,3544
2018-02-10T11:21:56.476Z,3680
2018-02-10T11:22:57.005Z,3856
2018-02-10T11:23:56.994Z,4016
2018-02-10T11:25:11.442Z,3996
2018-02-10T11:26:11.716Z,3784
2018-02-10T11:26:56.783Z,3648
2018-02-10T11:27:57.060Z,3500
2018-02-10T11:28:56.834Z,3464
2018-02-10T11:29:56.843Z,3500
2018-02-10T11:31:11.528Z,3540
2018-02-10T11:31:57.109Z,3600
2018-02-10T11:32:56.891Z,3696
2018-02-10T11:35:11.838Z,3952
2018-02-10T11:36:11.605Z,4084
2018-02-10T11:36:57.186Z,4168
2018-02-10T11:37:56.960Z,4260
2018-02-10T11:38:57.217Z,4200
2018-02-10T11:39:57.268Z,4172
2018-02-10T11:40:57.270Z,4276
2018-02-10T11:41:57.277Z,4464
2018-02-10T11:43:11.943Z,4720
2018-02-10T11:44:57.329Z,5072
2018-02-10T11:45:57.098Z,5356
2018-02-10T11:46:57.087Z,5652
2018-02-10T11:47:56.601Z,5724
2018-02-10T11:48:57.377Z,5752
2018-02-10T11:49:57.150Z,5772
2018-02-10T11:51:26.764Z,5808
2018-02-10T11:52:57.448Z,5972
2018-02-10T11:53:57.180Z,6104
2018-02-10T11:54:57.459Z,6248
2018-02-10T11:55:57.569Z,6488
2018-02-10T11:56:57.285Z,6656
2018-02-10T11:57:57.511Z,6768
2018-02-10T11:58:57.516Z,6704
2018-02-10T11:59:57.297Z,6528
2018-02-10T12:00:57.292Z,6252
2018-02-10T12:01:57.078Z,5984
2018-02-10T12:03:12.001Z,5756
2018-02-10T12:03:57.359Z,5676
2018-02-10T12:04:57.116Z,5604
2018-02-10T12:06:12.069Z,5552
2018-02-10T12:06:57.667Z,5584
2018-02-10T12:08:57.499Z,5576
2018-02-10T12:09:57.419Z,5544
2018-02-10T12:10:57.839Z,5568
2018-02-10T12:12:12.439Z,5752
2018-02-10T12:12:57.486Z,5948
2018-02-10T12:13:57.508Z,6252
2018-02-10T12:14:57.764Z,6540
2018-02-10T12:16:12.460Z,6836
2018-02-10T12:16:57.548Z,6912
2018-02-10T12:17:57.821Z,6920
2018-02-10T12:19:12.250Z,6796
2018-02-10T12:19:57.894Z,6680
2018-02-10T12:20:57.925Z,6536
2018-02-10T12:21:57.389Z,6376
2018-02-10T12:22:57.391Z,6240
2018-02-10T12:23:57.922Z,6164
2018-02-10T12:24:57.406Z,6164
2018-02-10T12:25:57.688Z,6176
2018-02-10T12:26:57.962Z,6148
2018-02-10T12:27:57.992Z,6100
2018-02-10T12:28:57.728Z,5984
2018-02-10T12:29:57.761Z,5840
2018-02-10T12:31:12.441Z,5696
2018-02-10T12:31:58.050Z,5624
2018-02-10T12:32:58.051Z,5592
2018-02-10T12:33:57.825Z,5552
2018-02-10T12:35:12.514Z,5560
2018-02-10T12:35:57.831Z,5588
2018-02-10T12:36:58.117Z,5648
2018-02-10T12:38:12.794Z,5688
2018-02-10T12:38:57.993Z,5692
2018-02-10T12:39:58.191Z,5668
2018-02-10T12:40:58.172Z,5620
2018-02-10T12:41:57.952Z,5600
2018-02-10T12:42:57.960Z,5564
2018-02-10T12:43:58.239Z,5512
2018-02-10T12:45:12.922Z,5524
2018-02-10T12:45:58.101Z,5600
2018-02-10T12:46:58.039Z,5676
2018-02-10T12:47:58.035Z,5832
2018-02-10T12:48:58.075Z,6248
2018-02-10T12:50:58.080Z,6780
2018-02-10T12:51:58.383Z,6848
2018-02-10T12:52:58.128Z,6968
2018-02-10T12:54:12.824Z,7096
2018-02-10T12:54:58.398Z,7140
2018-02-10T12:55:58.179Z,7124
2018-02-10T12:56:58.436Z,7148
2018-02-10T12:58:12.882Z,7208
2018-02-10T12:58:58.214Z,7300
2018-02-10T12:59:58.230Z,7292
2018-02-10T13:00:58.245Z,7248
2018-02-10T13:01:58.256Z,7140
2018-02-10T13:02:58.296Z,7152
2018-02-10T13:03:58.528Z,7036
2018-02-10T13:04:58.343Z,6924
2018-02-10T13:05:58.335Z,6756
2018-02-10T13:06:58.610Z,6684
2018-02-10T13:07:58.629Z,6556
2018-02-10T13:08:58.130Z,6568
2018-02-10T13:10:27.990Z,6760
2018-02-10T13:10:58.419Z,6804
2018-02-10T13:11:58.430Z,6920
2018-02-10T13:12:58.707Z,7092
2018-02-10T13:13:58.474Z,7100
2018-02-10T13:14:58.755Z,7244
2018-02-10T13:15:58.498Z,7372
2018-02-10T13:17:13.179Z,7180
2018-02-10T13:17:58.276Z,7192
2018-02-10T13:19:13.473Z,7064
2018-02-10T13:19:58.601Z,7000
2018-02-10T13:20:58.842Z,6864
2018-02-10T13:21:58.864Z,6732
2018-02-10T13:22:58.370Z,6520
2018-02-10T13:23:58.373Z,6376
2018-02-10T13:25:13.061Z,6068
2018-02-10T13:26:13.586Z,5856
2018-02-10T13:26:58.656Z,5784
2018-02-10T13:27:58.749Z,5628
2018-02-10T13:28:58.942Z,5128
2018-02-10T13:29:58.739Z,4848
2018-02-10T13:30:58.739Z,4580
2018-02-10T13:31:58.807Z,4468
2018-02-10T13:32:58.765Z,4504
2018-02-10T13:33:58.556Z,4420
2018-02-10T13:34:59.052Z,4312
2018-02-10T13:36:58.826Z,4616
2018-02-10T13:37:59.115Z,4704
2018-02-10T13:38:58.853Z,4692
2018-02-10T13:39:58.886Z,4672
2018-02-10T13:41:28.244Z,4604
2018-02-10T13:41:58.664Z,4564
2018-02-10T13:42:59.341Z,4412
2018-02-10T13:43:59.205Z,4360
2018-02-10T13:44:59.235Z,4348
2018-02-10T13:45:59.082Z,4348
2018-02-10T13:46:59.004Z,4368
2018-02-10T13:47:59.272Z,4464
2018-02-10T13:48:59.062Z,4156
2018-02-10T13:49:59.316Z,4340
2018-02-10T13:51:59.128Z,4268
2018-02-10T13:52:59.137Z,4152
2018-02-10T13:53:59.118Z,4056
2018-02-10T13:54:59.139Z,3820
2018-02-10T13:55:59.407Z,3672
2018-02-10T13:57:13.830Z,3624
2018-02-10T13:59:59.224Z,4056
2018-02-10T14:00:58.978Z,4112
2018-02-10T14:01:59.502Z,4088
2018-02-10T14:02:59.242Z,3788
2018-02-10T14:03:59.286Z,3652
2018-02-10T14:04:59.519Z,3576
2018-02-10T14:05:59.326Z,3604
2018-02-10T14:06:59.320Z,3624
2018-02-10T14:07:59.584Z,3580
2018-02-10T14:08:59.614Z,3536
2018-02-10T14:09:59.621Z,3452
2018-02-10T14:11:59.637Z,3276
2018-02-10T14:13:14.097Z,3164
2018-02-10T14:13:59.521Z,3124
2018-02-10T14:14:59.715Z,3168
2018-02-10T14:15:59.722Z,3148
2018-02-10T14:16:59.714Z,3140
2018-02-10T14:17:59.492Z,3032
2018-02-10T14:18:59.511Z,2992
2018-02-10T14:19:59.284Z,2880
2018-02-10T14:20:59.522Z,2784
2018-02-10T14:21:59.567Z,2712
2018-02-10T14:22:59.816Z,2640
2018-02-10T14:23:59.833Z,2568
2018-02-10T14:24:59.859Z,2504
2018-02-10T14:25:59.622Z,2456
2018-02-10T14:26:59.890Z,2444
2018-02-10T14:27:59.661Z,2408
2018-02-10T14:29:14.606Z,2404
2018-02-10T14:30:00.067Z,2376
2018-02-10T14:30:59.934Z,2344
2018-02-10T14:31:59.732Z,2328
2018-02-10T14:32:59.723Z,2284
2018-02-10T14:33:59.488Z,2240
2018-02-10T14:35:14.800Z,2164
2018-02-10T14:35:59.785Z,2120
2018-02-10T14:36:59.793Z,2092
2018-02-10T14:37:59.796Z,2084
2018-02-10T14:38:59.830Z,2044
2018-02-10T14:40:00.084Z,1996
2018-02-10T14:41:00.120Z,1972
2018-02-10T14:42:00.117Z,1904
2018-02-10T14:43:00.139Z,1828
2018-02-10T14:44:14.564Z,1700
2018-02-10T14:45:14.846Z,1644
2018-02-10T14:45:59.929Z,1596
2018-02-10T14:46:59.944Z,1524
2018-02-10T14:48:00.224Z,1444
2018-02-10T14:49:00.241Z,1368